Time;durP1;ratioP1;P1;durP2;ratioP2;P2;SDS_P1;SDS_P2;PMS_P1;PMS_P2;Temp;Humidity;BMP_temperature;BMP_pressure;BME280_temperature;BME280_humidity;BME280_pressure;Samples;Min_cycle;Max_cycle;Signal;HPM_P1;HPM_P2
2023/04/27 00:03:15;;;;;;;;;;;;;;;4.15;64.65332;102250.2;;;;-67
2023/04/27 00:08:15;;;;;;;;;;;;;;;4.05;64.5293;102246.6;;;;-68
2023/04/27 00:13:14;;;;;;;;;;;;;;;4.08;64.64258;102248.5;;;;-68
2023/04/27 00:18:14;;;;;;;;;;;;;;;3.98;64.68164;102247.1;;;;-69
2023/04/27 00:20:04;;;;;;;3.4;1.7;;;;;;;;;;;;;-69
2023/04/27 00:23:15;;;;;;;;;;;;;;;3.84;64.69336;102238.7;;;;-68
2023/04/27 00:28:15;;;;;;;;;;;;;;;3.81;64.95117;102240.4;;;;-68
2023/04/27 00:33:15;;;;;;;;;;;;;;;3.73;64.74219;102241.9;;;;-70
2023/04/27 00:38:15;;;;;;;;;;;;;;;3.7;64.72754;102236.6;;;;-68
2023/04/27 00:43:15;;;;;;;;;;;;;;;3.67;64.87793;102233.7;;;;-70
2023/04/27 00:48:15;;;;;;;;;;;;;;;3.59;64.67773;102238;;;;-69
2023/04/27 00:50:07;;;;;;;5;2;;;;;;;;;;;;;-68
2023/04/27 00:53:15;;;;;;;;;;;;;;;3.55;64.81445;102236.9;;;;-68
2023/04/27 00:58:15;;;;;;;;;;;;;;;3.41;64.89063;102239.6;;;;-69
2023/04/27 01:03:14;;;;;;;;;;;;;;;3.43;65.01563;102234.8;;;;-69
2023/04/27 01:08:14;;;;;;;;;;;;;;;3.36;65.05859;102233.6;;;;-70
2023/04/27 01:13:14;;;;;;;;;;;;;;;3.4;65.01074;102240;;;;-68
2023/04/27 01:18:15;;;;;;;;;;;;;;;3.29;64.88379;102240.8;;;;-68
2023/04/27 01:20:06;;;;;;;4.7;1.9;;;;;;;;;;;;;-68
2023/04/27 01:23:14;;;;;;;;;;;;;;;3.31;65.04004;102239.6;;;;-68
2023/04/27 01:28:14;;;;;;;;;;;;;;;3.26;64.96777;102233.7;;;;-67
2023/04/27 01:33:14;;;;;;;;;;;;;;;3.24;65.05078;102230.3;;;;-68
2023/04/27 01:38:15;;;;;;;;;;;;;;;3.11;65.04199;102219.4;;;;-68
2023/04/27 01:43:14;;;;;;;;;;;;;;;3.08;65.27832;102213.6;;;;-68
2023/04/27 01:48:15;;;;;;;;;;;;;;;3.05;65.19629;102210.8;;;;-69
2023/04/27 01:50:03;;;;;;;4.4;1.8;;;;;;;;;;;;;-69
2023/04/27 01:53:14;;;;;;;;;;;;;;;3.08;65.05957;102202.4;;;;-68
2023/04/27 01:58:14;;;;;;;;;;;;;;;3.08;64.63379;102203.8;;;;-68
2023/04/27 02:03:14;;;;;;;;;;;;;;;3.09;64.75586;102202.8;;;;-68
2023/04/27 02:08:14;;;;;;;;;;;;;;;3.03;64.94238;102197.5;;;;-68
2023/04/27 02:13:14;;;;;;;;;;;;;;;2.97;65.13086;102192.2;;;;-68
2023/04/27 02:18:14;;;;;;;;;;;;;;;2.99;64.99121;102198.2;;;;-69
2023/04/27 02:20:05;;;;;;;4.3;1.8;;;;;;;;;;;;;-68
2023/04/27 02:23:15;;;;;;;;;;;;;;;3.05;64.83594;102202.9;;;;-69
2023/04/27 02:28:14;;;;;;;;;;;;;;;2.98;65.09961;102197.2;;;;-68
2023/04/27 02:33:15;;;;;;;;;;;;;;;2.98;64.7168;102191.9;;;;-69
2023/04/27 02:38:15;;;;;;;;;;;;;;;3.01;64.67773;102188.8;;;;-69
2023/04/27 02:43:14;;;;;;;;;;;;;;;3.01;64.45898;102178.1;;;;-69
2023/04/27 02:48:14;;;;;;;;;;;;;;;2.95;64.85547;102187.3;;;;-69
2023/04/27 02:50:04;;;;;;;4.1;1.9;;;;;;;;;;;;;-69
2023/04/27 02:53:15;;;;;;;;;;;;;;;2.92;64.94922;102190.9;;;;-68
2023/04/27 02:58:15;;;;;;;;;;;;;;;2.92;64.88379;102197.4;;;;-68
2023/04/27 03:03:15;;;;;;;;;;;;;;;2.92;64.76172;102196.4;;;;-69
2023/04/27 03:08:15;;;;;;;;;;;;;;;2.92;64.66504;102193.1;;;;-69
2023/04/27 03:13:14;;;;;;;;;;;;;;;2.85;64.7207;102206;;;;-68
2023/04/27 03:18:14;;;;;;;;;;;;;;;2.86;64.89551;102213.2;;;;-68
2023/04/27 03:20:07;;;;;;;3.7;1.6;;;;;;;;;;;;;-68
2023/04/27 03:23:15;;;;;;;;;;;;;;;2.82;64.6709;102206.3;;;;-69
2023/04/27 03:28:15;;;;;;;;;;;;;;;2.82;64.68262;102207.3;;;;-70
2023/04/27 03:33:14;;;;;;;;;;;;;;;2.77;64.67285;102207.9;;;;-68
2023/04/27 03:38:15;;;;;;;;;;;;;;;2.74;64.73633;102208.6;;;;-68
2023/04/27 03:43:15;;;;;;;;;;;;;;;2.73;64.65723;102201.1;;;;-68
2023/04/27 03:48:15;;;;;;;;;;;;;;;2.75;64.82422;102201.8;;;;-68
2023/04/27 03:50:05;;;;;;;2.9;1.6;;;;;;;;;;;;;-68
2023/04/27 03:53:15;;;;;;;;;;;;;;;2.66;64.66895;102207.4;;;;-68
2023/04/27 03:58:16;;;;;;;;;;;;;;;2.66;64.71289;102210.7;;;;-68
2023/04/27 04:03:17;;;;;;;;;;;;;;;2.61;64.81348;102211;;;;-72
2023/04/27 04:08:15;;;;;;;;;;;;;;;2.62;64.76172;102210.7;;;;-73
2023/04/27 04:13:14;;;;;;;;;;;;;;;2.58;64.97266;102203.6;;;;-71
2023/04/27 04:18:14;;;;;;;;;;;;;;;2.56;64.71973;102205.6;;;;-71
2023/04/27 04:20:05;;;;;;;3.5;1.8;;;;;;;;;;;;;-71
2023/04/27 04:23:15;;;;;;;;;;;;;;;2.54;64.81348;102215.8;;;;-72
2023/04/27 04:28:15;;;;;;;;;;;;;;;2.52;64.75781;102222.1;;;;-71
2023/04/27 04:33:16;;;;;;;;;;;;;;;2.57;64.82813;102231.8;;;;-70
2023/04/27 04:38:14;;;;;;;;;;;;;;;2.53;65.1084;102229;;;;-71
2023/04/27 04:43:14;;;;;;;;;;;;;;;2.57;65.09082;102234.7;;;;-71
2023/04/27 04:48:16;;;;;;;;;;;;;;;2.59;65.20313;102237.5;;;;-70
2023/04/27 04:50:05;;;;;;;3.6;1.5;;;;;;;;;;;;;-70
2023/04/27 04:53:14;;;;;;;;;;;;;;;2.62;65.58984;102237;;;;-71
2023/04/27 04:58:15;;;;;;;;;;;;;;;2.69;65.45703;102235;;;;-71
2023/04/27 05:03:14;;;;;;;;;;;;;;;2.73;65.64063;102235;;;;-71
2023/04/27 05:08:15;;;;;;;;;;;;;;;2.78;65.32031;102228.6;;;;-69
2023/04/27 05:13:14;;;;;;;;;;;;;;;2.82;65.56543;102226.5;;;;-69
2023/04/27 05:18:14;;;;;;;;;;;;;;;2.84;65.62305;102233.7;;;;-68
2023/04/27 05:20:05;;;;;;;4.3;1.7;;;;;;;;;;;;;-68
2023/04/27 05:23:15;;;;;;;;;;;;;;;2.9;65.9707;102242.9;;;;-69
2023/04/27 05:28:15;;;;;;;;;;;;;;;2.98;65.58008;102241.9;;;;-68
2023/04/27 05:33:15;;;;;;;;;;;;;;;3.04;65.77344;102245;;;;-69
2023/04/27 05:38:16;;;;;;;;;;;;;;;3.11;66.49512;102244.8;;;;-69
2023/04/27 05:43:14;;;;;;;;;;;;;;;3.34;66.84766;102242.3;;;;-68
2023/04/27 05:48:14;;;;;;;;;;;;;;;3.79;66.27246;102241.8;;;;-69
2023/04/27 05:50:06;;;;;;;5.6;2.2;;;;;;;;;;;;;-67
2023/04/27 05:53:16;;;;;;;;;;;;;;;4.42;64.82422;102234.1;;;;-69
2023/04/27 05:58:15;;;;;;;;;;;;;;;4.85;64.46289;102240.4;;;;-69
2023/04/27 06:03:15;;;;;;;;;;;;;;;5.2;63.24023;102238.8;;;;-68
2023/04/27 06:08:15;;;;;;;;;;;;;;;5.65;63.08594;102234.9;;;;-68
2023/04/27 06:13:15;;;;;;;;;;;;;;;6.05;62.60645;102241;;;;-69
2023/04/27 06:18:15;;;;;;;;;;;;;;;6.28;62.35352;102243.6;;;;-69
2023/04/27 06:20:08;;;;;;;4.9;2.2;;;;;;;;;;;;;-69
2023/04/27 06:23:14;;;;;;;;;;;;;;;6.64;62.39453;102245.3;;;;-68
2023/04/27 06:28:14;;;;;;;;;;;;;;;6.95;61.93066;102250.1;;;;-70
2023/04/27 06:33:14;;;;;;;;;;;;;;;7.16;61.96191;102241.1;;;;-68
2023/04/27 06:38:14;;;;;;;;;;;;;;;7.54;61.57324;102251.6;;;;-70
2023/04/27 06:43:17;;;;;;;;;;;;;;;7.67;61.18359;102244.8;;;;-69
2023/04/27 06:48:15;;;;;;;;;;;;;;;7.93;60.94336;102244;;;;-68
2023/04/27 06:50:06;;;;;;;5.6;2;;;;;;;;;;;;;-70
2023/04/27 06:53:16;;;;;;;;;;;;;;;8.07;60.45313;102236.4;;;;-69
2023/04/27 06:58:14;;;;;;;;;;;;;;;8.42;59.70508;102230.3;;;;-68
2023/04/27 07:03:14;;;;;;;;;;;;;;;8.46;59.57715;102236;;;;-69
2023/04/27 07:08:15;;;;;;;;;;;;;;;8.69;58.99902;102237.3;;;;-68
2023/04/27 07:13:14;;;;;;;;;;;;;;;8.92;58.68652;102241.4;;;;-69
2023/04/27 07:18:14;;;;;;;;;;;;;;;9.12;58.19141;102244.3;;;;-69
2023/04/27 07:20:08;;;;;;;4.8;2.2;;;;;;;;;;;;;-69
2023/04/27 07:23:15;;;;;;;;;;;;;;;9.35;58.29004;102248.9;;;;-69
2023/04/27 07:28:15;;;;;;;;;;;;;;;9.67;57.1875;102249.1;;;;-72
2023/04/27 07:33:14;;;;;;;;;;;;;;;9.93;57;102251.3;;;;-69
2023/04/27 07:38:16;;;;;;;;;;;;;;;10.31;56.3252;102250.3;;;;-69
2023/04/27 07:43:14;;;;;;;;;;;;;;;10.57;55.64551;102246.5;;;;-70
2023/04/27 07:48:15;;;;;;;;;;;;;;;10.92;55.12109;102247.4;;;;-69
2023/04/27 07:50:09;;;;;;;5.2;1.9;;;;;;;;;;;;;-71
2023/04/27 07:53:15;;;;;;;;;;;;;;;11.06;55.12793;102243.8;;;;-68
2023/04/27 07:58:15;;;;;;;;;;;;;;;11.43;54.43652;102240.3;;;;-69
2023/04/27 08:03:14;;;;;;;;;;;;;;;11.55;54.53125;102239.5;;;;-73
2023/04/27 08:08:15;;;;;;;;;;;;;;;11.86;54.29004;102237.2;;;;-73
2023/04/27 08:13:14;;;;;;;;;;;;;;;12.2;53.69336;102237.5;;;;-70
2023/04/27 08:18:16;;;;;;;;;;;;;;;12.48;53.17871;102240.4;;;;-69
2023/04/27 08:20:10;;;;;;;3.8;1.8;;;;;;;;;;;;;-70
2023/04/27 08:23:14;;;;;;;;;;;;;;;12.6;52.7793;102240.2;;;;-69
2023/04/27 08:28:17;;;;;;;;;;;;;;;12.93;52.9082;102239.1;;;;-69
2023/04/27 08:33:14;;;;;;;;;;;;;;;13.47;52.18848;102236.4;;;;-69
2023/04/27 08:38:14;;;;;;;;;;;;;;;13.71;51.83496;102239.1;;;;-68
2023/04/27 08:43:14;;;;;;;;;;;;;;;13.9;51.85645;102235;;;;-67
2023/04/27 08:48:15;;;;;;;;;;;;;;;14.22;50.50977;102241.4;;;;-70
2023/04/27 08:50:12;;;;;;;4.3;1.9;;;;;;;;;;;;;-69
2023/04/27 08:53:23;;;;;;;;;;;;;;;14.5;50.6875;102241.9;;;;-68
2023/04/27 08:58:15;;;;;;;;;;;;;;;14.6;49.73145;102238.7;;;;-70
2023/04/27 09:03:21;;;;;;;;;;;;;;;14.7;49.25684;102235.8;;;;-69
2023/04/27 09:08:14;;;;;;;;;;;;;;;15.02;49.19141;102227;;;;-69
2023/04/27 09:13:15;;;;;;;;;;;;;;;15.08;49.20996;102217.5;;;;-68
2023/04/27 09:18:17;;;;;;;;;;;;;;;15.42;49.15723;102220.5;;;;-69
2023/04/27 09:20:14;;;;;;;3.2;1.9;;;;;;;;;;;;;-66
2023/04/27 09:23:25;;;;;;;;;;;;;;;15.68;48.67773;102210.1;;;;-67
2023/04/27 09:28:17;;;;;;;;;;;;;;;16.02;47.64063;102209;;;;-69
2023/04/27 09:35:33;;;;;;;;;;;;;;;16.41;47.17383;102210.9;;;;-69
2023/04/27 09:40:33;;;;;;;;;;;;;;;16.48;46.00293;102207.5;;;;-68
2023/04/27 09:45:32;;;;;;;;;;;;;;;16.6;46.41211;102199.7;;;;-68
2023/04/27 09:50:16;;;;;;;4;2;;;;;;;;;;;;;-68
2023/04/27 09:50:33;;;;;;;;;;;;;;;16.74;46.08594;102200.6;;;;-68
2023/04/27 09:55:36;;;;;;;;;;;;;;;16.93;45.62988;102198.9;;;;-69
2023/04/27 10:00:44;;;;;;;;;;;;;;;17.17;45.89355;102200.3;;;;-69
2023/04/27 10:05:39;;;;;;;;;;;;;;;17.35;44.85645;102202.8;;;;-70
2023/04/27 10:10:33;;;;;;;;;;;;;;;17.54;45.04492;102204.2;;;;-68
2023/04/27 10:15:32;;;;;;;;;;;;;;;17.74;45.25977;102197;;;;-69
2023/04/27 10:20:18;;;;;;;6;2.6;;;;;;;;;;;;;-70
2023/04/27 10:20:36;;;;;;;;;;;;;;;17.94;44.64258;102194;;;;-69
2023/04/27 10:25:39;;;;;;;;;;;;;;;18.05;44.26758;102196.1;;;;-68
2023/04/27 10:30:35;;;;;;;;;;;;;;;18.03;44.50391;102204.7;;;;-69
2023/04/27 10:35:39;;;;;;;;;;;;;;;18.23;48.47168;102204.9;;;;-69
2023/04/27 10:40:35;;;;;;;;;;;;;;;18.54;46.99121;102198.9;;;;-69
2023/04/27 10:45:37;;;;;;;;;;;;;;;18.81;45.99512;102200.3;;;;-68
2023/04/27 10:50:21;;;;;;;4.4;2.4;;;;;;;;;;;;;-68
2023/04/27 10:50:33;;;;;;;;;;;;;;;18.94;49.60645;102196.5;;;;-70
2023/04/27 10:55:36;;;;;;;;;;;;;;;18.93;49.84473;102193.9;;;;-69
2023/04/27 11:00:34;;;;;;;;;;;;;;;18.79;49.06738;102185;;;;-69
2023/04/27 11:05:33;;;;;;;;;;;;;;;18.68;47.48438;102183.1;;;;-68
2023/04/27 11:10:34;;;;;;;;;;;;;;;18.68;48.22461;102180.6;;;;-69
2023/04/27 11:15:32;;;;;;;;;;;;;;;18.67;52.68164;102173;;;;-68
2023/04/27 11:20:31;;;;;;;4.1;2.4;;;;;;;;;;;;;-68
2023/04/27 11:20:40;;;;;;;;;;;;;;;18.94;51.30371;102166.4;;;;-69
2023/04/27 11:25:34;;;;;;;;;;;;;;;19.16;49.89453;102164.8;;;;-69
2023/04/27 11:30:33;;;;;;;;;;;;;;;19.47;50.91992;102157.9;;;;-68
2023/04/27 11:35:46;;;;;;;;;;;;;;;19.67;53.91602;102160.3;;;;-68
2023/04/27 11:40:39;;;;;;;;;;;;;;;19.94;52.72949;102159.3;;;;-73
2023/04/27 11:45:33;;;;;;;;;;;;;;;20.08;53.19043;102158.3;;;;-68
2023/04/27 11:50:28;;;;;;;4.8;2.7;;;;;;;;;;;;;-72
2023/04/27 11:50:38;;;;;;;;;;;;;;;20.27;52.04883;102149.4;;;;-72
2023/04/27 11:55:32;;;;;;;;;;;;;;;20.46;54.86719;102145.3;;;;-68
2023/04/27 12:00:32;;;;;;;;;;;;;;;20.44;54.4209;102145.4;;;;-69
2023/04/27 12:05:32;;;;;;;;;;;;;;;20.31;52.21484;102151.6;;;;-70
2023/04/27 12:10:34;;;;;;;;;;;;;;;20.48;54.08301;102150.2;;;;-68
2023/04/27 12:15:32;;;;;;;;;;;;;;;20.62;53.80273;102138.7;;;;-68
2023/04/27 12:20:31;;;;;;;5;2.9;;;;;;;;;;;;;-67
2023/04/27 12:20:40;;;;;;;;;;;;;;;20.37;52.10742;102138.6;;;;-68
2023/04/27 12:25:33;;;;;;;;;;;;;;;20.02;51.89453;102132.5;;;;-70
2023/04/27 12:30:34;;;;;;;;;;;;;;;19.63;52.35156;102118.6;;;;-69
2023/04/27 12:35:32;;;;;;;;;;;;;;;19.54;54.77637;102121.6;;;;-74
2023/04/27 12:40:32;;;;;;;;;;;;;;;19.56;54.84668;102127.3;;;;-75
2023/04/27 12:45:32;;;;;;;;;;;;;;;19.57;54.66602;102132.6;;;;-75
2023/04/27 12:50:34;;;;;;;;;;;;;;;19.47;53.6416;102127.7;;;;-74
2023/04/27 12:50:43;;;;;;;5.9;2.9;;;;;;;;;;;;;-74
2023/04/27 12:55:32;;;;;;;;;;;;;;;19.26;55.20898;102119.8;;;;-74
2023/04/27 13:00:33;;;;;;;;;;;;;;;19.47;53.40234;102117.5;;;;-74
2023/04/27 13:05:32;;;;;;;;;;;;;;;19.45;53.3418;102114.9;;;;-69
2023/04/27 13:10:32;;;;;;;;;;;;;;;19.59;53.23438;102098.7;;;;-69
2023/04/27 13:15:33;;;;;;;;;;;;;;;19.71;52.56543;102097.1;;;;-69
2023/04/27 13:20:32;;;;;;;;;;;;;;;19.6;53.57715;102095.6;;;;-69
2023/04/27 13:20:42;;;;;;;6.4;2.6;;;;;;;;;;;;;-69
2023/04/27 13:25:33;;;;;;;;;;;;;;;19.5;55.34082;102101.8;;;;-68
2023/04/27 13:30:33;;;;;;;;;;;;;;;19.59;52.98438;102096.7;;;;-68
2023/04/27 13:35:32;;;;;;;;;;;;;;;19.62;53.13574;102091.1;;;;-69
2023/04/27 13:40:32;;;;;;;;;;;;;;;19.61;53.58984;102085.7;;;;-70
2023/04/27 13:45:32;;;;;;;;;;;;;;;19.63;52.44141;102083.3;;;;-69
2023/04/27 13:50:32;;;;;;;;;;;;;;;19.66;53.67578;102082.2;;;;-69
2023/04/27 13:50:42;;;;;;;6.3;3.7;;;;;;;;;;;;;-69
2023/04/27 13:55:32;;;;;;;;;;;;;;;19.56;54.91602;102075.1;;;;-68
2023/04/27 14:00:34;;;;;;;;;;;;;;;19.43;52.15625;102077.7;;;;-70
2023/04/27 14:05:35;;;;;;;;;;;;;;;19.2;53.09668;102066.8;;;;-70
2023/04/27 14:10:32;;;;;;;;;;;;;;;19.17;53.75293;102064;;;;-68
2023/04/27 14:15:35;;;;;;;;;;;;;;;19.12;51.20898;102060.1;;;;-69
2023/04/27 14:20:33;;;;;;;;;;;;;;;19.02;53.29102;102046.6;;;;-71
2023/04/27 14:20:45;;;;;;;5.7;3.4;;;;;;;;;;;;;-69
2023/04/27 14:25:33;;;;;;;;;;;;;;;19.08;54.75391;102033.7;;;;-68
2023/04/27 14:30:35;;;;;;;;;;;;;;;19.43;55.24023;102035.6;;;;-69
2023/04/27 14:35:32;;;;;;;;;;;;;;;19.43;53.5791;102025.1;;;;-69
2023/04/27 14:40:33;;;;;;;;;;;;;;;19.5;53.24609;102009.1;;;;-69
2023/04/27 14:45:32;;;;;;;;;;;;;;;19.37;52.10449;102015;;;;-69
2023/04/27 14:50:32;;;;;;;;;;;;;;;19.38;52.13867;102019.2;;;;-70
2023/04/27 14:50:48;;;;;;;4.8;2.8;;;;;;;;;;;;;-68
2023/04/27 14:55:32;;;;;;;;;;;;;;;19.3;52.18652;102008.4;;;;-69
2023/04/27 15:00:32;;;;;;;;;;;;;;;19.21;51.09375;102002.1;;;;-68
2023/04/27 15:05:32;;;;;;;;;;;;;;;19.19;51.77539;101997.6;;;;-69
2023/04/27 15:10:32;;;;;;;;;;;;;;;19.29;51.97949;102000.7;;;;-69
2023/04/27 15:15:32;;;;;;;;;;;;;;;19.38;51.78516;101984.6;;;;-69
2023/04/27 15:20:32;;;;;;;;;;;;;;;19.42;51.41504;101983.8;;;;-69
2023/04/27 15:20:52;;;;;;;6.9;2.8;;;;;;;;;;;;;-68
2023/04/27 15:25:32;;;;;;;;;;;;;;;19.52;50.82227;101980.3;;;;-67
2023/04/27 15:30:32;;;;;;;;;;;;;;;19.57;50.25879;101978.3;;;;-69
2023/04/27 15:35:32;;;;;;;;;;;;;;;19.65;50.17676;101971.5;;;;-69
2023/04/27 15:40:34;;;;;;;;;;;;;;;19.66;50.33789;101960.9;;;;-69
2023/04/27 15:45:33;;;;;;;;;;;;;;;19.56;49.9502;101959.7;;;;-69
2023/04/27 15:50:35;;;;;;;;;;;;;;;19.37;49.07422;101952.6;;;;-69
2023/04/27 15:50:55;;;;;;;4.6;2.7;;;;;;;;;;;;;-69
2023/04/27 15:55:32;;;;;;;;;;;;;;;19.25;49.6084;101948.1;;;;-69
2023/04/27 16:00:33;;;;;;;;;;;;;;;19.03;49.58301;101948.3;;;;-69
2023/04/27 16:05:32;;;;;;;;;;;;;;;18.83;50.2998;101948.8;;;;-69
2023/04/27 16:10:32;;;;;;;;;;;;;;;18.65;49.92676;101941.8;;;;-69
2023/04/27 16:15:32;;;;;;;;;;;;;;;18.51;49.91113;101933.2;;;;-68
2023/04/27 16:20:33;;;;;;;;;;;;;;;18.26;49.90527;101926.8;;;;-68
2023/04/27 16:21:01;;;;;;;4.7;2.8;;;;;;;;;;;;;-69
2023/04/27 16:25:32;;;;;;;;;;;;;;;18.06;50.16699;101905.5;;;;-68
2023/04/27 16:30:32;;;;;;;;;;;;;;;17.93;50.61914;101895.6;;;;-69
2023/04/27 16:35:33;;;;;;;;;;;;;;;17.8;51.18359;101895.4;;;;-68
2023/04/27 16:40:32;;;;;;;;;;;;;;;17.69;50.50098;101888.2;;;;-69
2023/04/27 16:45:32;;;;;;;;;;;;;;;17.51;50.69531;101881.8;;;;-70
2023/04/27 16:50:32;;;;;;;;;;;;;;;17.31;51.23828;101882.5;;;;-67
2023/04/27 16:51:01;;;;;;;5.1;3.1;;;;;;;;;;;;;-69
2023/04/27 16:55:32;;;;;;;;;;;;;;;17.12;50.41309;101888.1;;;;-68
2023/04/27 17:00:32;;;;;;;;;;;;;;;16.85;51.00586;101877.5;;;;-70
2023/04/27 17:05:32;;;;;;;;;;;;;;;16.64;51.4668;101881;;;;-68
2023/04/27 17:10:35;;;;;;;;;;;;;;;16.48;50.81543;101882.9;;;;-69
2023/04/27 17:15:33;;;;;;;;;;;;;;;16.29;51.3916;101882.7;;;;-69
2023/04/27 17:20:32;;;;;;;;;;;;;;;16.11;51.51855;101879.9;;;;-68
2023/04/27 17:21:04;;;;;;;5.4;3.1;;;;;;;;;;;;;-70
2023/04/27 17:25:32;;;;;;;;;;;;;;;15.94;52.19922;101877.3;;;;-71
2023/04/27 17:30:35;;;;;;;;;;;;;;;15.7;52.25;101866.3;;;;-70
2023/04/27 17:35:33;;;;;;;;;;;;;;;15.55;51.26074;101865;;;;-69
2023/04/27 17:40:35;;;;;;;;;;;;;;;15.37;52.3457;101866.6;;;;-70
2023/04/27 17:45:36;;;;;;;;;;;;;;;15.2;52.68652;101877.6;;;;-72
2023/04/27 17:50:33;;;;;;;;;;;;;;;15.05;52.28613;101870.8;;;;-69
2023/04/27 17:51:07;;;;;;;5.8;3.2;;;;;;;;;;;;;-72
2023/04/27 17:55:32;;;;;;;;;;;;;;;14.85;52.47559;101861.9;;;;-69
2023/04/27 18:00:32;;;;;;;;;;;;;;;14.68;52.60156;101861;;;;-69
2023/04/27 18:05:33;;;;;;;;;;;;;;;14.51;52.40137;101863;;;;-69
2023/04/27 18:10:35;;;;;;;;;;;;;;;14.35;52.58496;101853.3;;;;-68
2023/04/27 18:15:33;;;;;;;;;;;;;;;14.21;52.65723;101845.4;;;;-68
2023/04/27 18:20:32;;;;;;;;;;;;;;;14.05;52.78516;101834.1;;;;-67
2023/04/27 18:21:10;;;;;;;6.1;3.1;;;;;;;;;;;;;-69
2023/04/27 18:25:32;;;;;;;;;;;;;;;13.9;52.72266;101831;;;;-70
2023/04/27 18:30:33;;;;;;;;;;;;;;;13.77;53.09961;101838.5;;;;-68
2023/04/27 18:35:32;;;;;;;;;;;;;;;13.62;52.91309;101829.1;;;;-72
2023/04/27 18:40:34;;;;;;;;;;;;;;;13.49;52.98633;101814.8;;;;-69
2023/04/27 18:45:35;;;;;;;;;;;;;;;13.34;53.09277;101817.6;;;;-69
2023/04/27 18:50:32;;;;;;;;;;;;;;;13.17;53.08398;101829.7;;;;-69
2023/04/27 18:51:12;;;;;;;4.5;2.6;;;;;;;;;;;;;-69
2023/04/27 18:55:32;;;;;;;;;;;;;;;13;53.00684;101833.8;;;;-70
2023/04/27 19:00:32;;;;;;;;;;;;;;;12.87;53.02539;101829.8;;;;-68
2023/04/27 19:05:32;;;;;;;;;;;;;;;12.75;53.57031;101831.6;;;;-70
2023/04/27 19:10:32;;;;;;;;;;;;;;;12.61;53.27441;101825.4;;;;-69
2023/04/27 19:15:32;;;;;;;;;;;;;;;12.51;53.3623;101816.5;;;;-67
2023/04/27 19:20:32;;;;;;;;;;;;;;;12.41;53.47266;101824.8;;;;-69
2023/04/27 19:21:17;;;;;;;5;2.7;;;;;;;;;;;;;-69
2023/04/27 19:25:32;;;;;;;;;;;;;;;12.32;53.6748;101833.4;;;;-69
2023/04/27 19:30:32;;;;;;;;;;;;;;;12.23;53.78613;101839.5;;;;-68
2023/04/27 19:35:32;;;;;;;;;;;;;;;12.14;54.01172;101839.8;;;;-70
2023/04/27 19:40:35;;;;;;;;;;;;;;;12.05;54.15723;101834;;;;-69
2023/04/27 19:45:32;;;;;;;;;;;;;;;11.97;54.16895;101832.6;;;;-68
2023/04/27 19:50:32;;;;;;;;;;;;;;;11.9;54.47363;101828.5;;;;-69
2023/04/27 19:51:16;;;;;;;4.8;2.5;;;;;;;;;;;;;-70
2023/04/27 19:55:32;;;;;;;;;;;;;;;11.82;54.52051;101824;;;;-69
2023/04/27 20:00:33;;;;;;;;;;;;;;;11.75;54.65625;101829.3;;;;-69
2023/04/27 20:05:32;;;;;;;;;;;;;;;11.69;54.6709;101826;;;;-70
2023/04/27 20:10:33;;;;;;;;;;;;;;;11.62;54.69629;101816.2;;;;-69
2023/04/27 20:15:32;;;;;;;;;;;;;;;11.57;54.76758;101813;;;;-69
2023/04/27 20:20:32;;;;;;;;;;;;;;;11.5;54.83691;101808.1;;;;-69
2023/04/27 20:21:20;;;;;;;5.2;2.7;;;;;;;;;;;;;-71
2023/04/27 20:25:32;;;;;;;;;;;;;;;11.45;54.9082;101795.4;;;;-69
2023/04/27 20:30:32;;;;;;;;;;;;;;;11.38;54.94531;101779.7;;;;-69
2023/04/27 20:35:32;;;;;;;;;;;;;;;11.34;55.12988;101778.7;;;;-69
2023/04/27 20:40:32;;;;;;;;;;;;;;;11.27;55.1543;101771.3;;;;-69
2023/04/27 20:45:33;;;;;;;;;;;;;;;11.22;55.4043;101767.4;;;;-69
2023/04/27 20:50:32;;;;;;;;;;;;;;;11.16;55.30664;101758;;;;-69
2023/04/27 20:51:22;;;;;;;5.8;2.7;;;;;;;;;;;;;-70
2023/04/27 20:55:33;;;;;;;;;;;;;;;11.1;55.40137;101748.5;;;;-69
2023/04/27 21:00:32;;;;;;;;;;;;;;;11.04;55.57129;101751.6;;;;-69
2023/04/27 21:05:32;;;;;;;;;;;;;;;10.99;55.58789;101747;;;;-69
2023/04/27 21:10:34;;;;;;;;;;;;;;;10.94;55.78125;101744.3;;;;-69
2023/04/27 21:15:32;;;;;;;;;;;;;;;10.9;55.89941;101743.2;;;;-68
2023/04/27 21:20:32;;;;;;;;;;;;;;;10.85;56.0498;101737;;;;-71
2023/04/27 21:21:23;;;;;;;6.6;3.2;;;;;;;;;;;;;-69
2023/04/27 21:25:33;;;;;;;;;;;;;;;10.79;56.03027;101730;;;;-69
2023/04/27 21:30:34;;;;;;;;;;;;;;;10.75;56.18164;101719.7;;;;-68
2023/04/27 21:35:33;;;;;;;;;;;;;;;10.69;56.20703;101713.6;;;;-67
2023/04/27 21:40:32;;;;;;;;;;;;;;;10.64;56.36719;101704.9;;;;-68
2023/04/27 21:45:36;;;;;;;;;;;;;;;10.6;56.53027;101700.1;;;;-69
2023/04/27 21:50:32;;;;;;;;;;;;;;;10.55;56.49023;101687.5;;;;-69
2023/04/27 21:51:23;;;;;;;6.4;3.5;;;;;;;;;;;;;-69
2023/04/27 21:55:32;;;;;;;;;;;;;;;10.5;56.55078;101689.3;;;;-69
2023/04/27 22:00:32;;;;;;;;;;;;;;;10.46;56.76855;101679.5;;;;-68
2023/04/27 22:05:35;;;;;;;;;;;;;;;10.42;56.71777;101667.7;;;;-70
2023/04/27 22:10:32;;;;;;;;;;;;;;;10.38;56.76855;101661.1;;;;-69
2023/04/27 22:15:32;;;;;;;;;;;;;;;10.34;56.86426;101652;;;;-68
2023/04/27 22:20:32;;;;;;;;;;;;;;;10.3;56.94727;101653;;;;-68
2023/04/27 22:21:26;;;;;;;8;4;;;;;;;;;;;;;-69
2023/04/27 22:25:32;;;;;;;;;;;;;;;10.24;57.0957;101652;;;;-70
2023/04/27 22:30:32;;;;;;;;;;;;;;;10.2;57.08008;101635.1;;;;-68
2023/04/27 22:35:32;;;;;;;;;;;;;;;10.18;57.13184;101634.5;;;;-69
2023/04/27 22:40:33;;;;;;;;;;;;;;;10.13;57.37109;101636.9;;;;-67
2023/04/27 22:45:32;;;;;;;;;;;;;;;10.09;57.36621;101638.4;;;;-69
2023/04/27 22:50:32;;;;;;;;;;;;;;;10.05;57.52734;101638.8;;;;-69
2023/04/27 22:51:27;;;;;;;8.8;4;;;;;;;;;;;;;-69
2023/04/27 22:55:32;;;;;;;;;;;;;;;10.01;57.34277;101627.7;;;;-69
2023/04/27 23:00:32;;;;;;;;;;;;;;;9.98;57.65137;101615.6;;;;-70
2023/04/27 23:05:32;;;;;;;;;;;;;;;9.92;57.92188;101610.7;;;;-69
2023/04/27 23:10:33;;;;;;;;;;;;;;;9.89;58.08398;101611.9;;;;-69
2023/04/27 23:15:32;;;;;;;;;;;;;;;9.83;58.23242;101590.7;;;;-71
2023/04/27 23:20:32;;;;;;;;;;;;;;;9.81;58.46191;101587.7;;;;-70
2023/04/27 23:21:28;;;;;;;7.3;4.3;;;;;;;;;;;;;-69
2023/04/27 23:25:34;;;;;;;;;;;;;;;9.77;58.41309;101573.6;;;;-70
2023/04/27 23:30:33;;;;;;;;;;;;;;;9.75;58.64355;101565.8;;;;-67
2023/04/27 23:35:34;;;;;;;;;;;;;;;9.71;58.66016;101553.6;;;;-69
2023/04/27 23:40:32;;;;;;;;;;;;;;;9.66;58.73145;101559;;;;-69
2023/04/27 23:45:32;;;;;;;;;;;;;;;9.62;58.95898;101552.7;;;;-69
2023/04/27 23:50:32;;;;;;;;;;;;;;;9.61;58.87988;101557.7;;;;-69
2023/04/27 23:51:32;;;;;;;8.4;4.5;;;;;;;;;;;;;-67
2023/04/27 23:55:33;;;;;;;;;;;;;;;9.56;59.04004;101551.6;;;;-70
